Time,TemperatureF,DewpointF,PressureIn,WindDirection,WindDirectionDegrees,WindSpeedMPH,WindSpeedGustMPH,Humidity,HourlyPrecipIn,Conditions,Clouds,dailyrainin,SoftwareType,DateUTC
2013-08-06 00:00:00,86.1,62.3,29.77,South,186,8.0,10.0,45,0.00,,---,0.00,VWS V14.01,2013-08-06 05:00:00,
2013-08-06 00:03:00,86.0,62.2,29.77,SSE,156,5.0,8.0,45,0.00,,---,0.00,VWS V14.01,2013-08-06 05:03:00,
2013-08-06 00:06:00,85.9,62.7,29.77,SSE,151,5.0,8.0,46,0.00,,---,0.00,VWS V14.01,2013-08-06 05:06:00,
2013-08-06 00:09:00,85.8,62.7,29.77,SSE,167,4.0,8.0,46,0.00,,---,0.00,VWS V14.01,2013-08-06 05:09:00,
2013-08-06 00:12:00,85.6,62.5,29.77,South,173,2.0,8.0,46,0.00,,---,0.00,VWS V14.01,2013-08-06 05:12:00,
2013-08-06 00:15:00,85.6,62.5,29.77,SSE,164,5.0,8.0,46,0.00,,---,0.00,VWS V14.01,2013-08-06 05:15:00,
2013-08-06 00:18:00,85.5,62.4,29.77,SSE,153,4.0,8.0,46,0.00,,---,0.00,VWS V14.01,2013-08-06 05:18:00,
2013-08-06 00:21:00,85.3,62.2,29.77,SSE,166,3.0,8.0,46,0.00,,---,0.00,VWS V14.01,2013-08-06 05:21:00,
2013-08-06 00:24:00,85.3,62.8,29.77,SSE,163,5.0,8.0,47,0.00,,---,0.00,VWS V14.01,2013-08-06 05:24:00,
2013-08-06 00:27:00,85.3,62.8,29.77,South,174,0.0,8.0,47,0.00,,---,0.00,VWS V14.01,2013-08-06 05:27:00,
2013-08-06 00:30:00,85.3,62.8,29.77,South,172,5.0,8.0,47,0.00,,---,0.00,VWS V14.01,2013-08-06 05:30:00,
2013-08-06 00:33:00,85.2,62.7,29.77,SSE,152,5.0,9.0,47,0.00,,---,0.00,VWS V14.01,2013-08-06 05:33:00,
2013-08-06 00:36:00,85.2,62.7,29.77,SSE,168,5.0,9.0,47,0.00,,---,0.00,VWS V14.01,2013-08-06 05:36:00,
2013-08-06 00:39:00,85.2,62.7,29.77,SSE,165,5.0,9.0,47,0.00,,---,0.00,VWS V14.01,2013-08-06 05:39:00,
2013-08-06 00:42:00,85.1,62.6,29.77,South,180,4.0,9.0,47,0.00,,---,0.00,VWS V14.01,2013-08-06 05:42:00,
2013-08-06 00:45:00,85.0,62.5,29.77,SE,142,8.0,9.0,47,0.00,,---,0.00,VWS V14.01,2013-08-06 05:45:00,
2013-08-06 00:48:00,85.0,62.5,29.77,SSE,162,3.0,9.0,47,0.00,,---,0.00,VWS V14.01,2013-08-06 05:48:00,
2013-08-06 00:51:00,84.9,62.4,29.77,SSE,168,2.0,9.0,47,0.00,,---,0.00,VWS V14.01,2013-08-06 05:51:00,
2013-08-06 00:54:00,84.7,62.9,29.77,SSE,157,3.0,9.0,48,0.00,,---,0.00,VWS V14.01,2013-08-06 05:54:00,
2013-08-06 01:00:00,84.4,62.6,29.77,South,171,4.0,9.0,48,0.00,,---,0.00,VWS V14.01,2013-08-06 06:00:00,
2013-08-06 01:03:00,84.3,63.1,29.77,SSE,159,2.0,8.0,49,0.00,,---,0.00,VWS V14.01,2013-08-06 06:03:00,
2013-08-06 01:06:00,84.2,63.0,29.77,South,169,7.0,8.0,49,0.00,,---,0.00,VWS V14.01,2013-08-06 06:06:00,
2013-08-06 01:09:00,84.2,63.0,29.77,South,169,5.0,8.0,49,0.00,,---,0.00,VWS V14.01,2013-08-06 06:09:00,
2013-08-06 01:16:00,84.2,63.0,29.77,SSE,163,2.0,9.0,49,0.00,,---,0.00,VWS V14.01,2013-08-06 06:16:00,
2013-08-06 01:22:00,84.1,62.9,29.77,SSE,166,3.0,9.0,49,0.00,,---,0.00,VWS V14.01,2013-08-06 06:22:00,
2013-08-06 01:28:00,83.8,63.2,29.77,South,171,2.0,9.0,50,0.00,,---,0.00,VWS V14.01,2013-08-06 06:28:00,
2013-08-06 01:30:00,83.6,63.0,29.77,SSE,168,3.0,9.0,50,0.00,,---,0.00,VWS V14.01,2013-08-06 06:30:00,
2013-08-06 01:31:00,83.6,63.0,29.77,SE,145,6.0,7.0,50,0.00,,---,0.00,VWS V14.01,2013-08-06 06:31:00,
2013-08-06 01:34:00,83.4,62.8,29.77,South,171,3.0,8.0,50,0.00,,---,0.00,VWS V14.01,2013-08-06 06:34:00,
2013-08-06 01:40:00,83.0,63.0,29.77,South,190,7.0,8.0,51,0.00,,---,0.00,VWS V14.01,2013-08-06 06:40:00,
2013-08-06 01:43:00,83.0,63.0,29.77,SSE,167,4.0,8.0,51,0.00,,---,0.00,VWS V14.01,2013-08-06 06:43:00,
2013-08-06 01:46:00,83.0,63.0,29.77,South,175,4.0,8.0,51,0.00,,---,0.00,VWS V14.01,2013-08-06 06:46:00,
2013-08-06 01:49:00,82.9,63.5,29.77,South,172,3.0,8.0,52,0.00,,---,0.00,VWS V14.01,2013-08-06 06:49:00,
2013-08-06 01:52:00,83.0,63.6,29.77,South,184,3.0,8.0,52,0.00,,---,0.00,VWS V14.01,2013-08-06 06:52:00,
2013-08-06 01:56:00,84.6,62.8,29.77,South,173,0.0,9.0,48,0.00,,---,0.00,VWS V14.01,2013-08-06 06:56:00,
2013-08-06 01:58:00,83.1,63.7,29.77,SSE,151,3.0,11.0,52,0.00,,---,0.00,VWS V14.01,2013-08-06 06:58:00,
2013-08-06 02:00:00,83.1,64.2,29.77,South,173,2.0,11.0,53,0.00,,---,0.00,VWS V14.01,2013-08-06 07:00:00,
2013-08-06 02:01:00,83.1,64.2,29.77,South,182,3.0,6.0,53,0.00,,---,0.00,VWS V14.01,2013-08-06 07:01:00,
2013-08-06 02:04:00,83.0,64.1,29.77,South,186,3.0,7.0,53,0.00,,---,0.00,VWS V14.01,2013-08-06 07:04:00,
2013-08-06 02:07:00,83.1,64.8,29.77,SSE,163,3.0,9.0,54,0.00,,---,0.00,VWS V14.01,2013-08-06 07:07:00,
2013-08-06 02:10:00,83.2,64.8,29.77,SSW,196,6.0,11.0,54,0.00,,---,0.00,VWS V14.01,2013-08-06 07:10:00,
2013-08-06 02:11:00,84.2,63.0,29.77,SSE,155,6.0,8.0,49,0.00,,---,0.00,VWS V14.01,2013-08-06 07:11:00,
2013-08-06 02:13:00,83.3,64.9,29.77,South,182,9.0,13.0,54,0.00,,---,0.00,VWS V14.01,2013-08-06 07:13:00,
2013-08-06 02:16:00,83.4,65.0,29.77,South,182,6.0,13.0,54,0.00,,---,0.00,VWS V14.01,2013-08-06 07:16:00,
2013-08-06 02:17:00,84.1,62.9,29.77,South,169,4.0,9.0,49,0.00,,---,0.00,VWS V14.01,2013-08-06 07:17:00,
2013-08-06 02:22:00,83.5,65.7,29.76,South,186,5.0,13.0,55,0.00,,---,0.00,VWS V14.01,2013-08-06 07:22:00,
2013-08-06 02:23:00,84.0,62.8,29.77,SE,132,7.0,9.0,49,0.00,,---,0.00,VWS V14.01,2013-08-06 07:23:00,
2013-08-06 02:25:00,83.6,65.7,29.76,SSE,159,7.0,13.0,55,0.00,,---,0.00,VWS V14.01,2013-08-06 07:25:00,
2013-08-06 02:28:00,83.7,65.8,29.76,SSW,196,6.0,13.0,55,0.00,,---,0.00,VWS V14.01,2013-08-06 07:28:00,
2013-08-06 02:31:00,83.6,65.7,29.76,South,188,4.0,12.0,55,0.00,,---,0.00,VWS V14.01,2013-08-06 07:31:00,
2013-08-06 02:34:00,83.5,66.2,29.76,South,177,6.0,12.0,56,0.00,,---,0.00,VWS V14.01,2013-08-06 07:34:00,
2013-08-06 02:35:00,83.2,63.2,29.77,South,187,2.0,8.0,51,0.00,,---,0.00,VWS V14.01,2013-08-06 07:35:00,
2013-08-06 02:37:00,83.5,66.2,29.76,South,191,3.0,12.0,56,0.00,,---,0.00,VWS V14.01,2013-08-06 07:37:00,
2013-08-06 02:43:00,83.4,66.1,29.76,SSW,195,7.0,12.0,56,0.00,,---,0.00,VWS V14.01,2013-08-06 07:43:00,
2013-08-06 02:46:00,83.4,66.6,29.76,SSW,196,8.0,12.0,57,0.00,,---,0.00,VWS V14.01,2013-08-06 07:46:00,
2013-08-06 02:49:00,83.4,66.6,29.76,South,184,10.0,12.0,57,0.00,,---,0.00,VWS V14.01,2013-08-06 07:49:00,
2013-08-06 02:54:00,83.0,63.6,29.77,South,184,0.0,8.0,52,0.00,,---,0.00,VWS V14.01,2013-08-06 07:54:00,
2013-08-06 02:55:00,83.3,66.5,29.76,SSW,211,10.0,14.0,57,0.00,,---,0.00,VWS V14.01,2013-08-06 07:55:00,
2013-08-06 03:01:00,83.2,66.9,29.76,South,170,1.0,11.0,58,0.00,,---,0.00,VWS V14.01,2013-08-06 08:01:00,
2013-08-06 03:04:00,83.2,66.9,29.76,SSW,211,7.0,11.0,58,0.00,,---,0.00,VWS V14.01,2013-08-06 08:04:00,
2013-08-06 03:18:00,83.4,65.6,29.76,SSW,200,11.0,13.0,55,0.00,,---,0.00,VWS V14.01,2013-08-06 08:18:00,
2013-08-06 03:28:00,83.6,65.7,29.76,South,181,5.0,13.0,55,0.00,,---,0.00,VWS V14.01,2013-08-06 08:28:00,
2013-08-06 03:30:00,82.6,67.8,29.75,SSE,168,4.0,11.0,61,0.00,,---,0.00,VWS V14.01,2013-08-06 08:30:00,
2013-08-06 03:35:00,82.7,67.9,29.75,SSW,209,6.0,13.0,61,0.00,,---,0.00,VWS V14.01,2013-08-06 08:35:00,
2013-08-06 03:39:00,83.4,66.1,29.76,SSW,192,3.0,12.0,56,0.00,,---,0.00,VWS V14.01,2013-08-06 08:39:00,
2013-08-06 03:51:00,83.4,66.6,29.76,South,188,6.0,14.0,57,0.00,,---,0.00,VWS V14.01,2013-08-06 08:51:00,
2013-08-06 03:57:00,83.2,66.9,29.76,SSW,199,9.0,14.0,58,0.00,,---,0.00,VWS V14.01,2013-08-06 08:57:00,
2013-08-06 04:06:00,83.2,66.9,29.76,South,190,7.0,11.0,58,0.00,,---,0.00,VWS V14.01,2013-08-06 09:06:00,
2013-08-06 04:09:00,83.0,67.2,29.76,South,184,6.0,11.0,59,0.00,,---,0.00,VWS V14.01,2013-08-06 09:09:00,
2013-08-06 04:12:00,83.0,67.2,29.76,South,191,3.0,11.0,59,0.00,,---,0.00,VWS V14.01,2013-08-06 09:12:00,
2013-08-06 04:15:00,82.9,67.6,29.76,South,190,4.0,11.0,60,0.00,,---,0.00,VWS V14.01,2013-08-06 09:15:00,
2013-08-06 04:18:00,82.8,67.5,29.76,SSE,161,5.0,11.0,60,0.00,,---,0.00,VWS V14.01,2013-08-06 09:18:00,
2013-08-06 04:21:00,82.7,67.4,29.75,South,189,7.0,11.0,60,0.00,,---,0.00,VWS V14.01,2013-08-06 09:21:00,
2013-08-06 04:24:00,82.7,67.4,29.75,South,175,5.0,11.0,60,0.00,,---,0.00,VWS V14.01,2013-08-06 09:24:00,
2013-08-06 04:30:00,82.6,67.8,29.75,South,190,7.0,12.0,61,0.00,,---,0.00,VWS V14.01,2013-08-06 09:30:00,
2013-08-06 04:36:00,82.6,67.8,29.75,South,188,6.0,13.0,61,0.00,,---,0.00,VWS V14.01,2013-08-06 09:36:00,
2013-08-06 04:39:00,82.6,68.3,29.75,South,181,5.0,13.0,62,0.00,,---,0.00,VWS V14.01,2013-08-06 09:39:00,
2013-08-06 04:42:00,82.5,68.2,29.75,SSE,168,8.0,13.0,62,0.00,,---,0.00,VWS V14.01,2013-08-06 09:42:00,
2013-08-06 04:45:00,82.5,68.2,29.75,SSE,163,5.0,13.0,62,0.00,,---,0.00,VWS V14.01,2013-08-06 09:45:00,
2013-08-06 04:51:00,82.3,68.5,29.75,South,188,5.0,13.0,63,0.00,,---,0.00,VWS V14.01,2013-08-06 09:51:00,
2013-08-06 04:55:00,82.3,68.5,29.75,South,181,10.0,13.0,63,0.00,,---,0.00,VWS V14.01,2013-08-06 09:55:00,
2013-08-06 05:01:00,82.2,68.4,29.75,South,182,7.0,9.0,63,0.00,,---,0.00,VWS V14.01,2013-08-06 10:01:00,
2013-08-06 05:04:00,82.1,68.7,29.75,SSW,199,10.0,11.0,64,0.00,,---,0.00,VWS V14.01,2013-08-06 10:04:00,
2013-08-06 05:07:00,82.0,68.6,29.75,SSE,158,10.0,11.0,64,0.00,,---,0.00,VWS V14.01,2013-08-06 10:07:00,
2013-08-06 05:10:00,82.0,68.6,29.75,SSE,167,10.0,11.0,64,0.00,,---,0.00,VWS V14.01,2013-08-06 10:10:00,
2013-08-06 05:13:00,81.9,69.0,29.75,South,171,6.0,12.0,65,0.00,,---,0.00,VWS V14.01,2013-08-06 10:13:00,
2013-08-06 05:16:00,82.0,69.1,29.75,South,182,10.0,12.0,65,0.00,,---,0.00,VWS V14.01,2013-08-06 10:16:00,
2013-08-06 05:19:00,81.9,69.0,29.75,South,179,8.0,12.0,65,0.00,,---,0.00,VWS V14.01,2013-08-06 10:19:00,
2013-08-06 05:22:00,81.8,68.9,29.75,South,175,5.0,12.0,65,0.00,,---,0.00,VWS V14.01,2013-08-06 10:22:00,
2013-08-06 05:28:00,81.7,69.2,29.75,South,177,9.0,14.0,66,0.00,,---,0.00,VWS V14.01,2013-08-06 10:28:00,
2013-08-06 05:31:00,81.8,69.3,29.75,SSW,210,5.0,12.0,66,0.00,,---,0.00,VWS V14.01,2013-08-06 10:31:00,
2013-08-06 05:34:00,81.7,69.2,29.75,SSW,192,7.0,12.0,66,0.00,,---,0.00,VWS V14.01,2013-08-06 10:34:00,
2013-08-06 05:37:00,81.7,69.2,29.75,SSW,197,8.0,13.0,66,0.00,,---,0.00,VWS V14.01,2013-08-06 10:37:00,
2013-08-06 05:40:00,81.7,69.2,29.75,South,186,9.0,14.0,66,0.00,,---,0.00,VWS V14.01,2013-08-06 10:40:00,
2013-08-06 05:43:00,81.7,69.2,29.75,SSW,194,6.0,14.0,66,0.00,,---,0.00,VWS V14.01,2013-08-06 10:43:00,
2013-08-06 05:46:00,81.6,69.6,29.75,South,169,6.0,14.0,67,0.00,,---,0.00,VWS V14.01,2013-08-06 10:46:00,
2013-08-06 05:52:00,81.6,69.6,29.76,SSW,201,5.0,14.0,67,0.00,,---,0.00,VWS V14.01,2013-08-06 10:52:00,
2013-08-06 05:58:00,81.4,69.4,29.75,SSW,204,7.0,14.0,67,0.00,,---,0.00,VWS V14.01,2013-08-06 10:58:00,
2013-08-06 06:01:00,81.3,69.3,29.75,SSW,208,5.0,12.0,67,0.00,,---,0.00,VWS V14.01,2013-08-06 11:01:00,
2013-08-06 06:07:00,81.1,69.6,29.76,SSW,202,7.0,13.0,68,0.00,,---,0.00,VWS V14.01,2013-08-06 11:07:00,
2013-08-06 06:13:00,80.9,69.4,29.76,South,188,9.0,13.0,68,0.00,,---,0.00,VWS V14.01,2013-08-06 11:13:00,
2013-08-06 06:16:00,80.9,69.8,29.76,SW,216,4.0,13.0,69,0.00,,---,0.00,VWS V14.01,2013-08-06 11:16:00,
2013-08-06 06:19:00,80.7,69.6,29.76,SSW,200,3.0,13.0,69,0.00,,---,0.00,VWS V14.01,2013-08-06 11:19:00,
2013-08-06 06:22:00,80.7,69.6,29.76,SSW,198,7.0,13.0,69,0.00,,---,0.00,VWS V14.01,2013-08-06 11:22:00,
2013-08-06 06:25:00,80.6,69.9,29.76,SSW,197,4.0,13.0,70,0.00,,---,0.00,VWS V14.01,2013-08-06 11:25:00,
2013-08-06 06:28:00,80.6,69.9,29.76,WSW,258,6.0,13.0,70,0.00,,---,0.00,VWS V14.01,2013-08-06 11:28:00,
2013-08-06 06:31:00,80.6,69.9,29.76,SSW,205,5.0,9.0,70,0.00,,---,0.00,VWS V14.01,2013-08-06 11:31:00,
2013-08-06 06:37:00,80.5,69.8,29.76,South,185,6.0,11.0,70,0.00,,---,0.00,VWS V14.01,2013-08-06 11:37:00,
2013-08-06 06:40:00,80.5,69.8,29.76,SSW,200,6.0,11.0,70,0.00,,---,0.00,VWS V14.01,2013-08-06 11:40:00,
2013-08-06 06:43:00,80.4,69.7,29.76,SSW,202,7.0,11.0,70,0.00,,---,0.00,VWS V14.01,2013-08-06 11:43:00,
2013-08-06 06:46:00,80.3,69.6,29.77,SSW,194,3.0,11.0,70,0.00,,---,0.00,VWS V14.01,2013-08-06 11:46:00,
2013-08-06 06:52:00,80.1,69.9,29.77,SSW,199,4.0,11.0,71,0.00,,---,0.00,VWS V14.01,2013-08-06 11:52:00,
2013-08-06 06:58:00,80.0,69.8,29.77,SW,217,0.0,11.0,71,0.00,,---,0.00,VWS V14.01,2013-08-06 11:58:00,
2013-08-06 07:01:00,80.0,69.8,29.77,SW,215,6.0,9.0,71,0.00,,---,0.00,VWS V14.01,2013-08-06 12:01:00,
2013-08-06 07:08:00,79.9,70.1,29.77,SW,217,4.0,9.0,72,0.00,,---,0.00,VWS V14.01,2013-08-06 12:08:00,
2013-08-06 07:14:00,79.9,70.1,29.77,SSW,212,5.0,9.0,72,0.00,,---,0.00,VWS V14.01,2013-08-06 12:14:00,
2013-08-06 07:17:00,79.9,70.1,29.78,SSW,197,5.0,9.0,72,0.00,,---,0.00,VWS V14.01,2013-08-06 12:17:00,
2013-08-06 07:20:00,80.0,70.2,29.78,SSW,209,4.0,9.0,72,0.00,,---,0.00,VWS V14.01,2013-08-06 12:20:00,
2013-08-06 07:23:00,80.1,70.3,29.78,SSW,193,4.0,9.0,72,0.00,,---,0.00,VWS V14.01,2013-08-06 12:23:00,
2013-08-06 07:26:00,80.2,70.4,29.78,SW,215,5.0,10.0,72,0.00,,---,0.00,VWS V14.01,2013-08-06 12:26:00,
2013-08-06 07:28:00,80.3,70.5,29.78,SSW,199,5.0,10.0,72,0.00,,---,0.00,VWS V14.01,2013-08-06 12:28:00,
2013-08-06 07:32:00,80.4,70.6,29.78,SSW,198,5.0,10.0,72,0.00,,---,0.00,VWS V14.01,2013-08-06 12:32:00,
2013-08-06 07:35:00,80.6,70.8,29.78,SSW,198,6.0,10.0,72,0.00,,---,0.00,VWS V14.01,2013-08-06 12:35:00,
2013-08-06 07:38:00,80.7,70.4,29.78,SW,221,6.0,10.0,71,0.00,,---,0.00,VWS V14.01,2013-08-06 12:38:00,
2013-08-06 07:41:00,80.9,70.6,29.78,SW,217,6.0,10.0,71,0.00,,---,0.00,VWS V14.01,2013-08-06 12:41:00,
2013-08-06 07:47:00,81.2,70.5,29.78,SSW,202,3.0,10.0,70,0.00,,---,0.00,VWS V14.01,2013-08-06 12:47:00,
2013-08-06 07:50:00,81.3,70.6,29.78,SSW,204,6.0,10.0,70,0.00,,---,0.00,VWS V14.01,2013-08-06 12:50:00,
2013-08-06 07:56:00,81.7,70.6,29.78,SSW,213,7.0,12.0,69,0.00,,---,0.00,VWS V14.01,2013-08-06 12:56:00,
2013-08-06 07:58:00,81.8,70.6,29.78,SSE,164,4.0,12.0,69,0.00,,---,0.00,VWS V14.01,2013-08-06 12:58:00,
2013-08-06 07:59:00,81.9,70.7,29.78,SW,225,8.0,10.0,69,0.00,,---,0.00,VWS V14.01,2013-08-06 12:59:00,
2013-08-06 08:02:00,82.1,70.9,29.78,SW,214,5.0,10.0,69,0.00,,---,0.00,VWS V14.01,2013-08-06 13:02:00,
2013-08-06 08:08:00,82.4,70.8,29.78,SSW,212,4.0,12.0,68,0.00,,---,0.00,VWS V14.01,2013-08-06 13:08:00,
2013-08-06 08:11:00,82.6,70.5,29.78,South,188,5.0,12.0,67,0.00,,---,0.00,VWS V14.01,2013-08-06 13:11:00,
2013-08-06 08:14:00,82.8,71.2,29.78,SW,222,8.0,12.0,68,0.00,,---,0.00,VWS V14.01,2013-08-06 13:14:00,
2013-08-06 08:17:00,83.1,71.0,29.78,South,189,7.0,13.0,67,0.00,,---,0.00,VWS V14.01,2013-08-06 13:17:00,
2013-08-06 08:20:00,83.3,70.8,29.78,SSW,197,8.0,13.0,66,0.00,,---,0.00,VWS V14.01,2013-08-06 13:20:00,
2013-08-06 08:23:00,83.3,70.8,29.78,SSW,207,3.0,16.0,66,0.00,,---,0.00,VWS V14.01,2013-08-06 13:23:00,
2013-08-06 08:26:00,83.5,70.5,29.78,SSW,213,7.0,16.0,65,0.00,,---,0.00,VWS V14.01,2013-08-06 13:26:00,
2013-08-06 08:28:00,83.7,70.7,29.79,SW,230,6.0,16.0,65,0.00,,---,0.00,VWS V14.01,2013-08-06 13:28:00,
2013-08-06 08:29:00,83.8,70.8,29.79,SW,217,12.0,12.0,65,0.00,,---,0.00,VWS V14.01,2013-08-06 13:29:00,
2013-08-06 08:32:00,83.9,70.4,29.79,SSW,208,10.0,13.0,64,0.00,,---,0.00,VWS V14.01,2013-08-06 13:32:00,
2013-08-06 08:38:00,84.3,70.8,29.79,SSW,200,13.0,15.0,64,0.00,,---,0.00,VWS V14.01,2013-08-06 13:38:00,
2013-08-06 08:41:00,84.5,70.5,29.79,SW,236,11.0,15.0,63,0.00,,---,0.00,VWS V14.01,2013-08-06 13:41:00,
2013-08-06 08:44:00,84.5,70.5,29.79,South,176,6.0,15.0,63,0.00,,---,0.00,VWS V14.01,2013-08-06 13:44:00,
2013-08-06 08:47:00,84.7,70.2,29.79,SSW,212,7.0,15.0,62,0.00,,---,0.00,VWS V14.01,2013-08-06 13:47:00,
2013-08-06 08:50:00,84.9,70.9,29.79,SSW,205,5.0,15.0,63,0.00,,---,0.00,VWS V14.01,2013-08-06 13:50:00,
2013-08-06 08:53:00,85.3,70.8,29.79,South,170,14.0,18.0,62,0.00,,---,0.00,VWS V14.01,2013-08-06 13:53:00,
2013-08-06 08:56:00,85.4,70.4,29.79,SSW,193,7.0,18.0,61,0.00,,---,0.00,VWS V14.01,2013-08-06 13:56:00,
2013-08-06 08:58:00,85.5,70.5,29.79,SW,226,6.0,18.0,61,0.00,,---,0.00,VWS V14.01,2013-08-06 13:58:00,
2013-08-06 08:59:00,85.6,70.6,29.79,SW,235,10.0,12.0,61,0.00,,---,0.00,VWS V14.01,2013-08-06 13:59:00,
2013-08-06 09:02:00,85.7,70.2,29.79,SW,225,13.0,16.0,60,0.00,,---,0.00,VWS V14.01,2013-08-06 14:02:00,
2013-08-06 09:08:00,86.0,70.5,29.79,SSW,194,8.0,16.0,60,0.00,,---,0.00,VWS V14.01,2013-08-06 14:08:00,
2013-08-06 09:11:00,86.4,70.9,29.79,South,172,6.0,16.0,60,0.00,,---,0.00,VWS V14.01,2013-08-06 14:11:00,
2013-08-06 09:15:00,86.6,70.6,29.79,SSW,201,7.0,16.0,59,0.00,,---,0.00,VWS V14.01,2013-08-06 14:15:00,
2013-08-06 09:18:00,86.7,70.7,29.79,SSW,202,10.0,16.0,59,0.00,,---,0.00,VWS V14.01,2013-08-06 14:18:00,
2013-08-06 09:21:00,86.9,70.4,29.79,SSW,205,10.0,16.0,58,0.00,,---,0.00,VWS V14.01,2013-08-06 14:21:00,
2013-08-06 09:24:00,87.1,70.5,29.80,SW,222,10.0,16.0,58,0.00,,---,0.00,VWS V14.01,2013-08-06 14:24:00,
2013-08-06 09:27:00,87.4,70.8,29.79,SSW,212,9.0,16.0,58,0.00,,---,0.00,VWS V14.01,2013-08-06 14:27:00,
2013-08-06 09:30:00,87.8,70.7,29.79,South,170,9.0,10.0,57,0.00,,---,0.00,VWS V14.01,2013-08-06 14:30:00,
2013-08-06 09:33:00,88.0,70.3,29.79,South,191,11.0,13.0,56,0.00,,---,0.00,VWS V14.01,2013-08-06 14:33:00,
2013-08-06 09:36:00,88.1,69.9,29.79,SSW,205,7.0,15.0,55,0.00,,---,0.00,VWS V14.01,2013-08-06 14:36:00,
2013-08-06 09:39:00,88.3,70.6,29.78,SW,225,10.0,15.0,56,0.00,,---,0.00,VWS V14.01,2013-08-06 14:39:00,
2013-08-06 09:45:00,88.8,70.0,29.79,SSW,194,8.0,15.0,54,0.00,,---,0.00,VWS V14.01,2013-08-06 14:45:00,
2013-08-06 09:48:00,88.8,70.0,29.79,South,190,10.0,15.0,54,0.00,,---,0.00,VWS V14.01,2013-08-06 14:48:00,
2013-08-06 09:51:00,88.9,70.1,29.79,SSW,209,6.0,15.0,54,0.00,,---,0.00,VWS V14.01,2013-08-06 14:51:00,
2013-08-06 09:57:00,89.5,70.1,29.78,SSW,203,8.0,17.0,53,0.00,,---,0.00,VWS V14.01,2013-08-06 14:57:00,
2013-08-06 09:58:00,89.6,70.2,29.78,South,191,7.0,17.0,53,0.00,,---,0.00,VWS V14.01,2013-08-06 14:58:00,
2013-08-06 10:00:00,89.7,70.3,29.78,SSW,204,7.0,12.0,53,0.00,,---,0.00,VWS V14.01,2013-08-06 15:00:00,
2013-08-06 10:03:00,89.9,69.9,29.78,SSW,197,7.0,15.0,52,0.00,,---,0.00,VWS V14.01,2013-08-06 15:03:00,
2013-08-06 10:06:00,90.4,70.4,29.78,SSW,198,10.0,15.0,52,0.00,,---,0.00,VWS V14.01,2013-08-06 15:06:00,
2013-08-06 10:09:00,90.8,69.6,29.78,SW,227,10.0,16.0,50,0.00,,---,0.00,VWS V14.01,2013-08-06 15:09:00,
2013-08-06 10:15:00,90.9,70.3,29.78,SW,224,10.0,16.0,51,0.00,,---,0.00,VWS V14.01,2013-08-06 15:15:00,
2013-08-06 10:18:00,90.9,69.7,29.78,SSW,207,9.0,16.0,50,0.00,,---,0.00,VWS V14.01,2013-08-06 15:18:00,
2013-08-06 10:21:00,91.5,70.2,29.78,SW,223,9.0,16.0,50,0.00,,---,0.00,VWS V14.01,2013-08-06 15:21:00,
2013-08-06 10:27:00,92.0,69.5,29.78,South,175,10.0,16.0,48,0.00,,---,0.00,VWS V14.01,2013-08-06 15:27:00,
2013-08-06 10:28:00,92.0,69.5,29.78,SSW,193,7.0,16.0,48,0.00,,---,0.00,VWS V14.01,2013-08-06 15:28:00,
2013-08-06 10:33:00,92.0,68.9,29.78,SSW,201,11.0,16.0,47,0.00,,---,0.00,VWS V14.01,2013-08-06 15:33:00,
2013-08-06 10:39:00,92.3,69.8,29.77,SW,232,7.0,16.0,48,0.00,,---,0.00,VWS V14.01,2013-08-06 15:39:00,
2013-08-06 10:42:00,92.7,69.5,29.77,WSW,245,9.0,16.0,47,0.00,,---,0.00,VWS V14.01,2013-08-06 15:42:00,
2013-08-06 10:45:00,93.0,69.8,29.78,WSW,255,10.0,16.0,47,0.00,,---,0.00,VWS V14.01,2013-08-06 15:45:00,
2013-08-06 10:48:00,93.0,69.2,29.78,SSW,208,7.0,16.0,46,0.00,,---,0.00,VWS V14.01,2013-08-06 15:48:00,
2013-08-06 10:51:00,93.1,69.3,29.78,WSW,237,8.0,16.0,46,0.00,,---,0.00,VWS V14.01,2013-08-06 15:51:00,
2013-08-06 10:54:00,93.4,69.5,29.78,SSW,201,8.0,16.0,46,0.00,,---,0.00,VWS V14.01,2013-08-06 15:54:00,
2013-08-06 10:58:00,93.5,69.0,29.78,SSW,192,7.0,16.0,45,0.00,,---,0.00,VWS V14.01,2013-08-06 15:58:00,
2013-08-06 11:03:00,93.8,69.3,29.78,SW,222,10.0,15.0,45,0.00,,---,0.00,VWS V14.01,2013-08-06 16:03:00,
2013-08-06 11:06:00,94.0,68.8,29.78,SW,214,8.0,15.0,44,0.00,,---,0.00,VWS V14.01,2013-08-06 16:06:00,
2013-08-06 11:09:00,94.2,69.6,29.78,South,189,10.0,16.0,45,0.00,,---,0.00,VWS V14.01,2013-08-06 16:09:00,
2013-08-06 11:15:00,94.6,68.7,29.78,SSW,204,9.0,17.0,43,0.00,,---,0.00,VWS V14.01,2013-08-06 16:15:00,
2013-08-06 11:18:00,94.6,68.7,29.78,WSW,240,7.0,17.0,43,0.00,,---,0.00,VWS V14.01,2013-08-06 16:18:00,
2013-08-06 11:22:00,95.0,69.7,29.78,SW,236,11.0,17.0,44,0.00,,---,0.00,VWS V14.01,2013-08-06 16:22:00,
2013-08-06 11:25:00,95.1,69.1,29.78,SSW,213,8.0,17.0,43,0.00,,---,0.00,VWS V14.01,2013-08-06 16:25:00,
2013-08-06 11:28:00,95.6,69.6,29.78,SSW,207,7.0,17.0,43,0.00,,---,0.00,VWS V14.01,2013-08-06 16:28:00,
2013-08-06 11:31:00,95.9,69.1,29.78,West,261,8.0,12.0,42,0.00,,---,0.00,VWS V14.01,2013-08-06 16:31:00,
2013-08-06 11:34:00,95.8,69.0,29.78,South,190,10.0,14.0,42,0.00,,---,0.00,VWS V14.01,2013-08-06 16:34:00,
2013-08-06 11:40:00,96.2,68.7,29.78,SW,227,7.0,14.0,41,0.00,,---,0.00,VWS V14.01,2013-08-06 16:40:00,
2013-08-06 11:41:00,99.1,65.8,29.77,South,190,9.0,16.0,34,0.00,,---,0.00,VWS V14.01,2013-08-06 16:41:00,
2013-08-06 11:43:00,96.4,69.6,29.78,SSW,209,7.0,14.0,42,0.00,,---,0.00,VWS V14.01,2013-08-06 16:43:00,
2013-08-06 11:46:00,96.8,69.2,29.78,SSW,197,9.0,14.0,41,0.00,,---,0.00,VWS V14.01,2013-08-06 16:46:00,
2013-08-06 11:47:00,99.3,66.0,29.77,SW,225,11.0,16.0,34,0.00,,---,0.00,VWS V14.01,2013-08-06 16:47:00,
2013-08-06 11:49:00,96.9,68.6,29.78,SW,217,12.0,14.0,40,0.00,,---,0.00,VWS V14.01,2013-08-06 16:49:00,
2013-08-06 11:52:00,97.0,68.7,29.78,SSW,208,7.0,14.0,40,0.00,,---,0.00,VWS V14.01,2013-08-06 16:52:00,
2013-08-06 11:55:00,97.3,67.5,29.78,SSW,211,8.0,14.0,38,0.00,,---,0.00,VWS V14.01,2013-08-06 16:55:00,
2013-08-06 11:58:00,97.1,68.0,29.78,SW,216,8.0,14.0,39,0.00,,---,0.00,VWS V14.01,2013-08-06 16:58:00,
2013-08-06 12:01:00,97.4,69.1,29.78,South,182,7.0,10.0,40,0.00,,---,0.00,VWS V14.01,2013-08-06 17:01:00,
2013-08-06 12:03:00,100.6,66.3,29.77,SSW,202,6.0,12.0,33,0.00,,---,0.00,VWS V14.01,2013-08-06 17:03:00,
2013-08-06 12:04:00,97.6,67.0,29.78,SW,217,5.0,15.0,37,0.00,,---,0.00,VWS V14.01,2013-08-06 17:04:00,
2013-08-06 12:07:00,97.8,67.9,29.78,WSW,242,9.0,15.0,38,0.00,,---,0.00,VWS V14.01,2013-08-06 17:07:00,
2013-08-06 12:10:00,98.1,68.2,29.78,SSW,195,7.0,15.0,38,0.00,,---,0.00,VWS V14.01,2013-08-06 17:10:00,
2013-08-06 12:13:00,98.3,67.6,29.78,SSW,198,7.0,16.0,37,0.00,,---,0.00,VWS V14.01,2013-08-06 17:13:00,
2013-08-06 12:15:00,100.6,66.3,29.76,SSW,200,6.0,15.0,33,0.00,,---,0.00,VWS V14.01,2013-08-06 17:15:00,
2013-08-06 12:19:00,98.5,67.0,29.77,SSW,192,7.0,16.0,36,0.00,,---,0.00,VWS V14.01,2013-08-06 17:19:00,
2013-08-06 12:22:00,98.4,67.7,29.77,SSW,200,6.0,16.0,37,0.00,,---,0.00,VWS V14.01,2013-08-06 17:22:00,
2013-08-06 12:28:00,98.6,67.1,29.77,SW,215,5.0,16.0,36,0.00,,---,0.00,VWS V14.01,2013-08-06 17:28:00,
2013-08-06 12:31:00,98.8,68.0,29.77,South,186,6.0,10.0,37,0.00,,---,0.00,VWS V14.01,2013-08-06 17:31:00,
2013-08-06 12:33:00,101.3,66.0,29.76,SSE,160,12.0,14.0,32,0.00,,---,0.00,VWS V14.01,2013-08-06 17:33:00,
2013-08-06 12:37:00,99.0,67.4,29.77,South,190,6.0,15.0,36,0.00,,---,0.00,VWS V14.01,2013-08-06 17:37:00,
2013-08-06 12:43:00,99.1,67.5,29.77,SSW,213,9.0,16.0,36,0.00,,---,0.00,VWS V14.01,2013-08-06 17:43:00,
2013-08-06 12:49:00,99.8,66.4,29.77,SSW,195,7.0,16.0,34,0.00,,---,0.00,VWS V14.01,2013-08-06 17:49:00,
2013-08-06 12:52:00,99.6,65.4,29.77,SSW,211,7.0,16.0,33,0.00,,---,0.00,VWS V14.01,2013-08-06 17:52:00,
2013-08-06 12:55:00,99.8,66.4,29.77,SW,216,11.0,16.0,34,0.00,,---,0.00,VWS V14.01,2013-08-06 17:55:00,
2013-08-06 12:58:00,100.0,66.6,29.77,South,190,2.0,16.0,34,0.00,,---,0.00,VWS V14.01,2013-08-06 17:58:00,
2013-08-06 13:04:00,100.9,66.5,29.77,South,184,7.0,15.0,33,0.00,,---,0.00,VWS V14.01,2013-08-06 18:04:00,
2013-08-06 13:06:00,102.4,66.9,29.74,South,172,8.0,14.0,32,0.00,,---,0.00,VWS V14.01,2013-08-06 18:06:00,
2013-08-06 13:07:00,101.0,66.6,29.77,SSW,213,5.0,15.0,33,0.00,,---,0.00,VWS V14.01,2013-08-06 18:07:00,
2013-08-06 13:10:00,101.1,64.0,29.77,SW,217,9.0,15.0,30,0.00,,---,0.00,VWS V14.01,2013-08-06 18:10:00,
2013-08-06 13:16:00,101.0,65.7,29.76,SSW,206,8.0,15.0,32,0.00,,---,0.00,VWS V14.01,2013-08-06 18:16:00,
2013-08-06 13:22:00,101.1,66.7,29.76,SSW,198,7.0,15.0,33,0.00,,---,0.00,VWS V14.01,2013-08-06 18:22:00,
2013-08-06 13:25:00,101.4,67.0,29.76,SSW,211,1.0,15.0,33,0.00,,---,0.00,VWS V14.01,2013-08-06 18:25:00,
2013-08-06 13:28:00,101.4,67.0,29.76,SSW,202,2.0,15.0,33,0.00,,---,0.00,VWS V14.01,2013-08-06 18:28:00,
2013-08-06 13:29:00,101.4,67.0,29.76,South,182,1.0,2.0,33,0.00,,---,0.00,VWS V14.01,2013-08-06 18:29:00,
2013-08-06 13:33:00,102.6,65.3,29.74,SSW,196,8.0,13.0,30,0.00,,---,0.00,VWS V14.01,2013-08-06 18:33:00,
2013-08-06 13:35:00,101.5,65.3,29.76,South,182,7.0,14.0,31,0.00,,---,0.00,VWS V14.01,2013-08-06 18:35:00,
2013-08-06 13:38:00,101.6,65.3,29.76,SSE,167,7.0,15.0,31,0.00,,---,0.00,VWS V14.01,2013-08-06 18:38:00,
2013-08-06 13:44:00,101.3,64.1,29.75,WSW,240,8.0,15.0,30,0.00,,---,0.00,VWS V14.01,2013-08-06 18:44:00,
2013-08-06 13:45:00,102.7,64.4,29.73,SSW,205,7.0,17.0,29,0.00,,---,0.00,VWS V14.01,2013-08-06 18:45:00,
2013-08-06 13:50:00,101.9,65.6,29.75,South,170,5.0,15.0,31,0.00,,---,0.00,VWS V14.01,2013-08-06 18:50:00,
2013-08-06 13:51:00,102.7,66.3,29.73,SSE,168,9.0,17.0,31,0.00,,---,0.00,VWS V14.01,2013-08-06 18:51:00,
2013-08-06 13:53:00,102.0,64.7,29.75,SSE,168,2.0,15.0,30,0.00,,---,0.00,VWS V14.01,2013-08-06 18:53:00,
2013-08-06 13:56:00,102.0,65.7,29.75,SSE,147,10.0,15.0,31,0.00,,---,0.00,VWS V14.01,2013-08-06 18:56:00,
2013-08-06 14:02:00,102.4,65.1,29.74,South,182,10.0,12.0,30,0.00,,---,0.00,VWS V14.01,2013-08-06 19:02:00,
2013-08-06 14:04:00,103.4,64.0,29.73,SSE,162,5.0,13.0,28,0.00,,---,0.00,VWS V14.01,2013-08-06 19:04:00,
2013-08-06 14:08:00,102.6,65.3,29.74,SE,127,5.0,15.0,30,0.00,,---,0.00,VWS V14.01,2013-08-06 19:08:00,
2013-08-06 14:11:00,102.7,66.3,29.74,SSW,204,8.0,15.0,31,0.00,,---,0.00,VWS V14.01,2013-08-06 19:11:00,
2013-08-06 14:14:00,102.5,66.1,29.74,SW,219,3.0,15.0,31,0.00,,---,0.00,VWS V14.01,2013-08-06 19:14:00,
2013-08-06 14:20:00,102.4,64.1,29.74,South,189,10.0,15.0,29,0.00,,---,0.00,VWS V14.01,2013-08-06 19:20:00,
2013-08-06 14:22:00,104.0,63.4,29.72,SW,223,8.0,16.0,27,0.00,,---,0.00,VWS V14.01,2013-08-06 19:22:00,
2013-08-06 14:23:00,102.4,65.1,29.74,South,175,6.0,15.0,30,0.00,,---,0.00,VWS V14.01,2013-08-06 19:23:00,
2013-08-06 14:25:00,104.1,63.5,29.72,South,184,13.0,16.0,27,0.00,,---,0.00,VWS V14.01,2013-08-06 19:25:00,
2013-08-06 14:26:00,102.2,65.9,29.74,South,188,3.0,15.0,31,0.00,,---,0.00,VWS V14.01,2013-08-06 19:26:00,
2013-08-06 14:28:00,102.2,64.9,29.74,SSW,197,5.0,15.0,30,0.00,,---,0.00,VWS V14.01,2013-08-06 19:28:00,
2013-08-06 14:29:00,102.3,65.0,29.74,South,190,6.0,9.0,30,0.00,,---,0.00,VWS V14.01,2013-08-06 19:29:00,
2013-08-06 14:35:00,102.6,64.3,29.74,South,179,4.0,14.0,29,0.00,,---,0.00,VWS V14.01,2013-08-06 19:35:00,
2013-08-06 14:38:00,102.6,64.3,29.73,South,169,4.0,14.0,29,0.00,,---,0.00,VWS V14.01,2013-08-06 19:38:00,
2013-08-06 14:41:00,102.8,64.5,29.73,SSW,210,11.0,16.0,29,0.00,,---,0.00,VWS V14.01,2013-08-06 19:41:00,
2013-08-06 14:43:00,103.8,64.3,29.71,South,169,11.0,17.0,28,0.00,,---,0.00,VWS V14.01,2013-08-06 19:43:00,
2013-08-06 14:47:00,102.6,65.3,29.73,SSW,210,8.0,17.0,30,0.00,,---,0.00,VWS V14.01,2013-08-06 19:47:00,
2013-08-06 14:52:00,104.0,63.4,29.71,SE,130,6.0,17.0,27,0.00,,---,0.00,VWS V14.01,2013-08-06 19:52:00,
2013-08-06 14:53:00,103.0,63.6,29.72,South,182,5.0,17.0,28,0.00,,---,0.00,VWS V14.01,2013-08-06 19:53:00,
2013-08-06 14:56:00,103.0,63.6,29.73,SSE,165,6.0,17.0,28,0.00,,---,0.00,VWS V14.01,2013-08-06 19:56:00,
2013-08-06 14:58:00,103.1,63.7,29.73,SSE,163,9.0,17.0,28,0.00,,---,0.00,VWS V14.01,2013-08-06 19:58:00,
2013-08-06 14:59:00,103.2,62.8,29.73,SSW,192,7.0,13.0,27,0.00,,---,0.00,VWS V14.01,2013-08-06 19:59:00,
2013-08-06 15:01:00,104.3,63.7,29.71,SSW,213,2.0,17.0,27,0.00,,---,0.00,VWS V14.01,2013-08-06 20:01:00,
2013-08-06 15:04:00,104.4,62.7,29.70,SW,216,9.0,17.0,26,0.00,,---,0.00,VWS V14.01,2013-08-06 20:04:00,
2013-08-06 15:05:00,103.6,65.1,29.72,SSW,208,7.0,13.0,29,0.00,,---,0.00,VWS V14.01,2013-08-06 20:05:00,
2013-08-06 15:07:00,104.3,63.7,29.70,SE,145,8.0,17.0,27,0.00,,---,0.00,VWS V14.01,2013-08-06 20:07:00,
2013-08-06 15:08:00,103.7,65.2,29.72,SSE,167,6.0,16.0,29,0.00,,---,0.00,VWS V14.01,2013-08-06 20:08:00,
2013-08-06 15:10:00,104.1,64.6,29.70,SSE,165,7.0,17.0,28,0.00,,---,0.00,VWS V14.01,2013-08-06 20:10:00,
2013-08-06 15:11:00,103.7,65.2,29.72,South,170,7.0,16.0,29,0.00,,---,0.00,VWS V14.01,2013-08-06 20:11:00,
2013-08-06 15:14:00,103.9,64.4,29.72,SSW,192,8.0,16.0,28,0.00,,---,0.00,VWS V14.01,2013-08-06 20:14:00,
2013-08-06 15:16:00,103.9,63.3,29.70,SSW,200,7.0,17.0,27,0.00,,---,0.00,VWS V14.01,2013-08-06 20:16:00,
2013-08-06 15:17:00,103.9,64.4,29.72,SSW,209,7.0,16.0,28,0.00,,---,0.00,VWS V14.01,2013-08-06 20:17:00,
2013-08-06 15:26:00,103.8,63.3,29.71,SW,225,6.0,16.0,27,0.00,,---,0.00,VWS V14.01,2013-08-06 20:26:00,
2013-08-06 15:28:00,103.4,64.0,29.71,SSW,203,5.0,16.0,28,0.00,,---,0.00,VWS V14.01,2013-08-06 20:28:00,
2013-08-06 15:31:00,104.1,61.3,29.69,SSW,193,9.0,10.0,25,0.00,,---,0.00,VWS V14.01,2013-08-06 20:31:00,
2013-08-06 15:32:00,103.5,64.1,29.71,SSW,205,1.0,10.0,28,0.00,,---,0.00,VWS V14.01,2013-08-06 20:32:00,
2013-08-06 15:34:00,104.2,63.6,29.69,SW,216,5.0,10.0,27,0.00,,---,0.00,VWS V14.01,2013-08-06 20:34:00,
2013-08-06 15:36:00,103.8,65.3,29.71,SSE,163,13.0,13.0,29,0.00,,---,0.00,VWS V14.01,2013-08-06 20:36:00,
2013-08-06 15:37:00,104.5,63.9,29.69,South,180,0.0,10.0,27,0.00,,---,0.00,VWS V14.01,2013-08-06 20:37:00,
2013-08-06 15:40:00,104.6,63.9,29.69,SSW,198,3.0,10.0,27,0.00,,---,0.00,VWS V14.01,2013-08-06 20:40:00,
2013-08-06 15:45:00,103.6,64.1,29.71,SSW,200,8.0,17.0,28,0.00,,---,0.00,VWS V14.01,2013-08-06 20:45:00,
2013-08-06 15:48:00,103.7,64.2,29.71,South,182,7.0,17.0,28,0.00,,---,0.00,VWS V14.01,2013-08-06 20:48:00,
2013-08-06 15:54:00,104.1,63.5,29.71,South,169,5.0,17.0,27,0.00,,---,0.00,VWS V14.01,2013-08-06 20:54:00,
2013-08-06 15:55:00,104.4,63.8,29.68,SW,228,9.0,15.0,27,0.00,,---,0.00,VWS V14.01,2013-08-06 20:55:00,
2013-08-06 16:00:00,104.1,63.5,29.69,South,177,10.0,15.0,27,0.00,,---,0.00,VWS V14.01,2013-08-06 21:00:00,
2013-08-06 16:04:00,104.2,63.6,29.69,South,178,3.0,13.0,27,0.00,,---,0.00,VWS V14.01,2013-08-06 21:04:00,
2013-08-06 16:12:00,103.8,64.3,29.70,SSE,163,3.0,17.0,28,0.00,,---,0.00,VWS V14.01,2013-08-06 21:12:00,
2013-08-06 16:14:00,103.9,63.3,29.68,South,184,3.0,13.0,27,0.00,,---,0.00,VWS V14.01,2013-08-06 21:14:00,
2013-08-06 16:17:00,103.9,62.3,29.68,South,170,4.0,13.0,26,0.00,,---,0.00,VWS V14.01,2013-08-06 21:17:00,
2013-08-06 16:18:00,103.9,64.4,29.70,SSW,201,7.0,17.0,28,0.00,,---,0.00,VWS V14.01,2013-08-06 21:18:00,
2013-08-06 16:20:00,103.8,62.2,29.68,SSW,197,6.0,13.0,26,0.00,,---,0.00,VWS V14.01,2013-08-06 21:20:00,
2013-08-06 16:24:00,104.3,63.7,29.70,South,190,9.0,17.0,27,0.00,,---,0.00,VWS V14.01,2013-08-06 21:24:00,
2013-08-06 16:26:00,103.8,62.2,29.68,South,187,4.0,13.0,26,0.00,,---,0.00,VWS V14.01,2013-08-06 21:26:00,
2013-08-06 16:42:00,104.8,64.1,29.69,SSW,198,5.0,15.0,27,0.00,,---,0.00,VWS V14.01,2013-08-06 21:42:00,
2013-08-06 16:48:00,104.3,63.7,29.69,South,190,8.0,15.0,27,0.00,,---,0.00,VWS V14.01,2013-08-06 21:48:00,
2013-08-06 16:57:00,104.2,63.6,29.68,South,190,9.0,15.0,27,0.00,,---,0.00,VWS V14.01,2013-08-06 21:57:00,
2013-08-06 16:59:00,103.7,63.2,29.67,South,186,6.0,16.0,27,0.00,,---,0.00,VWS V14.01,2013-08-06 21:59:00,
2013-08-06 17:06:00,104.1,63.5,29.68,SSE,149,5.0,13.0,27,0.00,,---,0.00,VWS V14.01,2013-08-06 22:06:00,
2013-08-06 17:08:00,103.6,62.0,29.67,SSW,209,9.0,14.0,26,0.00,,---,0.00,VWS V14.01,2013-08-06 22:08:00,
2013-08-06 17:09:00,104.0,63.4,29.68,SW,217,9.0,13.0,27,0.00,,---,0.00,VWS V14.01,2013-08-06 22:09:00,
2013-08-06 17:17:00,103.4,64.0,29.67,South,169,6.0,14.0,28,0.00,,---,0.00,VWS V14.01,2013-08-06 22:17:00,
2013-08-06 17:21:00,103.8,63.3,29.68,SSW,194,5.0,13.0,27,0.00,,---,0.00,VWS V14.01,2013-08-06 22:21:00,
2013-08-06 17:27:00,103.8,63.3,29.67,South,183,4.0,13.0,27,0.00,,---,0.00,VWS V14.01,2013-08-06 22:27:00,
2013-08-06 17:28:00,103.8,63.3,29.67,SSW,209,8.0,13.0,27,0.00,,---,0.00,VWS V14.01,2013-08-06 22:28:00,
2013-08-06 17:33:00,103.8,63.3,29.67,SSW,207,9.0,14.0,27,0.00,,---,0.00,VWS V14.01,2013-08-06 22:33:00,
2013-08-06 17:36:00,103.9,63.3,29.67,SSW,205,9.0,15.0,27,0.00,,---,0.00,VWS V14.01,2013-08-06 22:36:00,
2013-08-06 17:39:00,103.9,63.3,29.67,South,173,7.0,15.0,27,0.00,,---,0.00,VWS V14.01,2013-08-06 22:39:00,
2013-08-06 17:41:00,102.3,65.0,29.66,SSE,165,8.0,12.0,30,0.00,,---,0.00,VWS V14.01,2013-08-06 22:41:00,
2013-08-06 17:42:00,103.8,62.2,29.67,South,172,3.0,15.0,26,0.00,,---,0.00,VWS V14.01,2013-08-06 22:42:00,
2013-08-06 17:49:00,103.6,62.0,29.67,SSW,192,5.0,15.0,26,0.00,,---,0.00,VWS V14.01,2013-08-06 22:49:00,
2013-08-06 17:52:00,103.7,63.2,29.67,SSW,197,7.0,15.0,27,0.00,,---,0.00,VWS V14.01,2013-08-06 22:52:00,
2013-08-06 17:55:00,103.7,63.2,29.67,SSW,192,7.0,16.0,27,0.00,,---,0.00,VWS V14.01,2013-08-06 22:55:00,
2013-08-06 17:58:00,103.7,63.2,29.67,South,182,6.0,16.0,27,0.00,,---,0.00,VWS V14.01,2013-08-06 22:58:00,
2013-08-06 17:59:00,101.2,64.1,29.66,SSE,150,10.0,13.0,30,0.00,,---,0.00,VWS V14.01,2013-08-06 22:59:00,
2013-08-06 18:02:00,101.0,63.9,29.66,SE,146,6.0,12.0,30,0.00,,---,0.00,VWS V14.01,2013-08-06 23:02:00,
2013-08-06 18:04:00,103.7,62.1,29.67,South,181,7.0,14.0,26,0.00,,---,0.00,VWS V14.01,2013-08-06 23:04:00,
2013-08-06 18:10:00,103.4,65.0,29.67,South,172,0.0,14.0,29,0.00,,---,0.00,VWS V14.01,2013-08-06 23:10:00,
2013-08-06 18:13:00,103.7,64.2,29.67,SSE,157,9.0,14.0,28,0.00,,---,0.00,VWS V14.01,2013-08-06 23:13:00,
2013-08-06 18:19:00,103.0,63.6,29.67,SSE,162,1.0,14.0,28,0.00,,---,0.00,VWS V14.01,2013-08-06 23:19:00,
2013-08-06 18:23:00,100.1,64.1,29.66,SSE,149,9.0,15.0,31,0.00,,---,0.00,VWS V14.01,2013-08-06 23:23:00,
2013-08-06 18:25:00,102.9,65.5,29.67,South,178,5.0,14.0,30,0.00,,---,0.00,VWS V14.01,2013-08-06 23:25:00,
2013-08-06 18:27:00,99.9,63.9,29.66,SSE,148,6.0,15.0,31,0.00,,---,0.00,VWS V14.01,2013-08-06 23:27:00,
2013-08-06 18:28:00,102.9,64.5,29.67,SSW,198,8.0,14.0,29,0.00,,---,0.00,VWS V14.01,2013-08-06 23:28:00,
2013-08-06 18:31:00,102.8,65.4,29.66,SSE,165,11.0,12.0,30,0.00,,---,0.00,VWS V14.01,2013-08-06 23:31:00,
2013-08-06 18:34:00,102.6,64.3,29.66,South,171,6.0,12.0,29,0.00,,---,0.00,VWS V14.01,2013-08-06 23:34:00,
2013-08-06 18:43:00,102.1,64.8,29.66,SE,131,6.0,12.0,30,0.00,,---,0.00,VWS V14.01,2013-08-06 23:43:00,
2013-08-06 18:46:00,101.9,63.7,29.66,SSE,157,4.0,12.0,29,0.00,,---,0.00,VWS V14.01,2013-08-06 23:46:00,
2013-08-06 18:52:00,101.6,64.4,29.66,South,174,5.0,12.0,30,0.00,,---,0.00,VWS V14.01,2013-08-06 23:52:00,
2013-08-06 18:55:00,101.3,64.1,29.66,SSE,156,6.0,13.0,30,0.00,,---,0.00,VWS V14.01,2013-08-06 23:55:00,
2013-08-06 18:58:00,101.2,64.1,29.66,SSE,161,8.0,13.0,30,0.00,,---,0.00,VWS V14.01,2013-08-06 23:58:00,
2013-08-06 19:04:00,101.0,64.8,29.66,SE,135,9.0,12.0,31,0.00,,---,0.00,VWS V14.01,2013-08-07 00:04:00,
2013-08-06 19:07:00,101.0,64.8,29.66,SE,144,10.0,15.0,31,0.00,,---,0.00,VWS V14.01,2013-08-07 00:07:00,
2013-08-06 19:13:00,100.5,64.4,29.66,South,176,10.0,15.0,31,0.00,,---,0.00,VWS V14.01,2013-08-07 00:13:00,
2013-08-06 19:19:00,100.2,64.1,29.66,SSE,161,3.0,15.0,31,0.00,,---,0.00,VWS V14.01,2013-08-07 00:19:00,
2013-08-06 19:28:00,99.7,64.6,29.66,SE,146,0.0,15.0,32,0.00,,---,0.00,VWS V14.01,2013-08-07 00:28:00,
2013-08-06 19:31:00,99.6,64.5,29.66,ENE,76,9.0,9.0,32,0.00,,---,0.00,VWS V14.01,2013-08-07 00:31:00,
2013-08-06 19:37:00,99.2,64.2,29.66,SE,143,6.0,10.0,32,0.00,,---,0.00,VWS V14.01,2013-08-07 00:37:00,
2013-08-06 19:43:00,98.8,64.7,29.66,SSE,153,5.0,12.0,33,0.00,,---,0.00,VWS V14.01,2013-08-07 00:43:00,
2013-08-06 19:46:00,98.7,64.6,29.66,SSE,167,5.0,12.0,33,0.00,,---,0.00,VWS V14.01,2013-08-07 00:46:00,
2013-08-06 19:52:00,98.2,64.2,29.66,SE,146,5.0,12.0,33,0.00,,---,0.00,VWS V14.01,2013-08-07 00:52:00,
2013-08-06 19:58:00,97.9,63.9,29.66,SSE,156,3.0,12.0,33,0.00,,---,0.00,VWS V14.01,2013-08-07 00:58:00,
2013-08-06 19:59:00,97.8,63.8,29.66,SE,145,3.0,3.0,33,0.00,,---,0.00,VWS V14.01,2013-08-07 00:59:00,
2013-08-06 20:05:00,97.4,64.3,29.66,SSE,157,5.0,9.0,34,0.00,,---,0.00,VWS V14.01,2013-08-07 01:05:00,
2013-08-06 20:08:00,97.1,64.1,29.66,SSE,162,4.0,9.0,34,0.00,,---,0.00,VWS V14.01,2013-08-07 01:08:00,
2013-08-06 20:11:00,96.9,63.9,29.67,SSE,157,5.0,10.0,34,0.00,,---,0.00,VWS V14.01,2013-08-07 01:11:00,
2013-08-06 20:14:00,96.7,63.7,29.67,SSE,153,4.0,10.0,34,0.00,,---,0.00,VWS V14.01,2013-08-07 01:14:00,
2013-08-06 20:17:00,96.6,63.7,29.67,SSE,160,3.0,10.0,34,0.00,,---,0.00,VWS V14.01,2013-08-07 01:17:00,
2013-08-06 20:20:00,96.3,63.4,29.67,SSE,153,5.0,10.0,34,0.00,,---,0.00,VWS V14.01,2013-08-07 01:20:00,
2013-08-06 20:26:00,95.8,63.8,29.67,SE,146,4.0,10.0,35,0.00,,---,0.00,VWS V14.01,2013-08-07 01:26:00,
2013-08-06 20:28:00,95.6,64.4,29.67,SSE,157,5.0,10.0,36,0.00,,---,0.00,VWS V14.01,2013-08-07 01:28:00,
2013-08-06 20:35:00,95.1,64.8,29.67,SE,142,3.0,8.0,37,0.00,,---,0.00,VWS V14.01,2013-08-07 01:35:00,
2013-08-06 20:41:00,94.8,64.5,29.67,SE,143,3.0,8.0,37,0.00,,---,0.00,VWS V14.01,2013-08-07 01:41:00,
2013-08-06 20:44:00,94.5,64.2,29.67,SE,137,0.0,8.0,37,0.00,,---,0.00,VWS V14.01,2013-08-07 01:44:00,
2013-08-06 20:47:00,94.1,64.6,29.67,SE,137,2.0,8.0,38,0.00,,---,0.00,VWS V14.01,2013-08-07 01:47:00,
2013-08-06 20:50:00,93.7,65.0,29.67,SE,132,3.0,8.0,39,0.00,,---,0.00,VWS V14.01,2013-08-07 01:50:00,
2013-08-06 20:53:00,93.4,65.5,29.67,SE,133,2.0,8.0,40,0.00,,---,0.00,VWS V14.01,2013-08-07 01:53:00,
2013-08-06 20:56:00,93.2,65.3,29.67,SE,139,1.0,8.0,40,0.00,,---,0.00,VWS V14.01,2013-08-07 01:56:00,
2013-08-06 20:58:00,93.1,65.9,29.67,SE,142,5.0,8.0,41,0.00,,---,0.00,VWS V14.01,2013-08-07 01:58:00,
2013-08-06 20:59:00,93.1,65.9,29.67,SE,144,1.0,6.0,41,0.00,,---,0.00,VWS V14.01,2013-08-07 01:59:00,
2013-08-06 21:02:00,92.9,65.8,29.67,SE,146,3.0,7.0,41,0.00,,---,0.00,VWS V14.01,2013-08-07 02:02:00,
2013-08-06 21:08:00,92.7,66.3,29.67,SE,136,3.0,7.0,42,0.00,,---,0.00,VWS V14.01,2013-08-07 02:08:00,
2013-08-06 21:14:00,92.6,66.2,29.68,SSE,148,5.0,9.0,42,0.00,,---,0.00,VWS V14.01,2013-08-07 02:14:00,
2013-08-06 21:17:00,92.6,66.2,29.68,SE,126,4.0,9.0,42,0.00,,---,0.00,VWS V14.01,2013-08-07 02:17:00,
2013-08-06 21:23:00,92.4,66.0,29.68,SSE,150,5.0,9.0,42,0.00,,---,0.00,VWS V14.01,2013-08-07 02:23:00,
2013-08-06 21:26:00,92.4,66.0,29.68,SSE,148,4.0,9.0,42,0.00,,---,0.00,VWS V14.01,2013-08-07 02:26:00,
2013-08-06 21:29:00,92.3,65.9,29.68,SSE,148,8.0,8.0,42,0.00,,---,0.00,VWS V14.01,2013-08-07 02:29:00,
2013-08-06 21:32:00,92.2,65.8,29.69,SE,141,4.0,8.0,42,0.00,,---,0.00,VWS V14.01,2013-08-07 02:32:00,
2013-08-06 21:38:00,92.0,65.6,29.69,SE,126,3.0,9.0,42,0.00,,---,0.00,VWS V14.01,2013-08-07 02:38:00,
2013-08-06 21:41:00,91.8,66.1,29.69,SE,136,3.0,9.0,43,0.00,,---,0.00,VWS V14.01,2013-08-07 02:41:00,
2013-08-06 21:44:00,91.6,66.0,29.69,SE,146,1.0,9.0,43,0.00,,---,0.00,VWS V14.01,2013-08-07 02:44:00,
2013-08-06 21:47:00,91.5,65.9,29.69,SE,146,4.0,9.0,43,0.00,,---,0.00,VWS V14.01,2013-08-07 02:47:00,
2013-08-06 21:50:00,91.4,65.8,29.69,SE,146,5.0,9.0,43,0.00,,---,0.00,VWS V14.01,2013-08-07 02:50:00,
2013-08-06 21:53:00,91.3,65.7,29.69,SSE,156,4.0,9.0,43,0.00,,---,0.00,VWS V14.01,2013-08-07 02:53:00,
2013-08-06 21:56:00,91.2,65.6,29.69,SSE,149,7.0,11.0,43,0.00,,---,0.00,VWS V14.01,2013-08-07 02:56:00,
2013-08-06 21:59:00,91.3,65.7,29.70,SSE,151,5.0,9.0,43,0.00,,---,0.00,VWS V14.01,2013-08-07 02:59:00,
2013-08-06 22:03:00,91.2,65.6,29.70,SSE,150,5.0,9.0,43,0.00,,---,0.00,VWS V14.01,2013-08-07 03:03:00,
2013-08-06 22:04:00,90.1,63.9,29.71,SSE,161,7.0,10.0,42,0.00,,---,0.00,VWS V14.01,2013-08-07 03:04:00,
2013-08-06 22:06:00,91.1,65.5,29.69,SSE,150,3.0,9.0,43,0.00,,---,0.00,VWS V14.01,2013-08-07 03:06:00,
2013-08-06 22:07:00,90.2,64.0,29.71,SE,146,6.0,11.0,42,0.00,,---,0.00,VWS V14.01,2013-08-07 03:07:00,
2013-08-06 22:10:00,90.2,64.0,29.70,SE,132,5.0,11.0,42,0.00,,---,0.00,VWS V14.01,2013-08-07 03:10:00,
2013-08-06 22:12:00,91.0,64.7,29.69,SSE,161,4.0,10.0,42,0.00,,---,0.00,VWS V14.01,2013-08-07 03:12:00,
2013-08-06 22:13:00,90.2,64.0,29.71,SE,136,8.0,11.0,42,0.00,,---,0.00,VWS V14.01,2013-08-07 03:13:00,
2013-08-06 22:15:00,91.0,64.7,29.70,SSE,155,5.0,10.0,42,0.00,,---,0.00,VWS V14.01,2013-08-07 03:15:00,
2013-08-06 22:16:00,90.2,64.0,29.71,SSE,155,2.0,11.0,42,0.00,,---,0.00,VWS V14.01,2013-08-07 03:16:00,
2013-08-06 22:18:00,90.9,65.3,29.70,SSE,153,8.0,10.0,43,0.00,,---,0.00,VWS V14.01,2013-08-07 03:18:00,
2013-08-06 22:19:00,90.2,64.0,29.71,SSE,167,5.0,11.0,42,0.00,,---,0.00,VWS V14.01,2013-08-07 03:19:00,
2013-08-06 22:21:00,90.8,65.2,29.70,SE,131,4.0,11.0,43,0.00,,---,0.00,VWS V14.01,2013-08-07 03:21:00,
2013-08-06 22:22:00,90.3,63.4,29.71,SSE,168,4.0,11.0,41,0.00,,---,0.00,VWS V14.01,2013-08-07 03:22:00,
2013-08-06 22:24:00,90.7,65.2,29.70,SSE,159,5.0,11.0,43,0.00,,---,0.00,VWS V14.01,2013-08-07 03:24:00,
2013-08-06 22:25:00,90.3,63.4,29.71,SSE,165,6.0,12.0,41,0.00,,---,0.00,VWS V14.01,2013-08-07 03:25:00,
2013-08-06 22:27:00,90.7,65.2,29.70,SSE,167,9.0,11.0,43,0.00,,---,0.00,VWS V14.01,2013-08-07 03:27:00,
2013-08-06 22:28:00,90.3,63.4,29.71,SSE,148,5.0,13.0,41,0.00,,---,0.00,VWS V14.01,2013-08-07 03:28:00,
2013-08-06 22:30:00,90.6,65.1,29.70,SSE,156,6.0,9.0,43,0.00,,---,0.00,VWS V14.01,2013-08-07 03:30:00,
2013-08-06 22:31:00,90.3,63.4,29.71,SSE,161,7.0,9.0,41,0.00,,---,0.00,VWS V14.01,2013-08-07 03:31:00,
2013-08-06 22:33:00,90.6,65.1,29.70,SE,143,7.0,9.0,43,0.00,,---,0.00,VWS V14.01,2013-08-07 03:33:00,
2013-08-06 22:34:00,90.2,63.3,29.71,South,169,8.0,10.0,41,0.00,,---,0.00,VWS V14.01,2013-08-07 03:34:00,
2013-08-06 22:37:00,90.2,63.3,29.71,SSE,153,7.0,12.0,41,0.00,,---,0.00,VWS V14.01,2013-08-07 03:37:00,
2013-08-06 22:39:00,90.3,64.8,29.71,SE,130,6.0,9.0,43,0.00,,---,0.00,VWS V14.01,2013-08-07 03:39:00,
2013-08-06 22:41:00,90.2,63.3,29.71,SSE,166,9.0,12.0,41,0.00,,---,0.00,VWS V14.01,2013-08-07 03:41:00,
2013-08-06 22:42:00,90.2,64.7,29.71,SE,137,5.0,9.0,43,0.00,,---,0.00,VWS V14.01,2013-08-07 03:42:00,
2013-08-06 22:44:00,90.1,63.9,29.71,SSE,159,4.0,12.0,42,0.00,,---,0.00,VWS V14.01,2013-08-07 03:44:00,
2013-08-06 22:45:00,90.1,64.6,29.71,SE,144,1.0,9.0,43,0.00,,---,0.00,VWS V14.01,2013-08-07 03:45:00,
2013-08-06 22:47:00,89.9,63.8,29.71,SSE,163,8.0,12.0,42,0.00,,---,0.00,VWS V14.01,2013-08-07 03:47:00,
2013-08-06 22:50:00,89.9,63.8,29.71,SSE,160,6.0,12.0,42,0.00,,---,0.00,VWS V14.01,2013-08-07 03:50:00,
2013-08-06 22:51:00,90.0,64.5,29.71,SSE,147,2.0,9.0,43,0.00,,---,0.00,VWS V14.01,2013-08-07 03:51:00,
2013-08-06 22:53:00,90.0,63.2,29.71,SSE,155,13.0,13.0,41,0.00,,---,0.00,VWS V14.01,2013-08-07 03:53:00,
2013-08-06 22:54:00,89.9,64.4,29.71,SE,139,6.0,10.0,43,0.00,,---,0.00,VWS V14.01,2013-08-07 03:54:00,
2013-08-06 22:56:00,90.1,63.2,29.71,SSE,160,8.0,13.0,41,0.00,,---,0.00,VWS V14.01,2013-08-07 03:56:00,
2013-08-06 22:57:00,90.0,64.5,29.71,SSE,147,7.0,10.0,43,0.00,,---,0.00,VWS V14.01,2013-08-07 03:57:00,
2013-08-06 22:59:00,90.0,63.2,29.71,South,169,4.0,13.0,41,0.00,,---,0.00,VWS V14.01,2013-08-07 03:59:00,
2013-08-06 23:00:00,90.1,64.6,29.71,SSE,150,4.0,8.0,43,0.00,,---,0.00,VWS V14.01,2013-08-07 04:00:00,
2013-08-06 23:02:00,90.1,63.2,29.71,SSE,150,7.0,11.0,41,0.00,,---,0.00,VWS V14.01,2013-08-07 04:02:00,
2013-08-06 23:05:00,90.1,63.2,29.71,SSE,165,5.0,11.0,41,0.00,,---,0.00,VWS V14.01,2013-08-07 04:05:00,
2013-08-06 23:08:00,90.2,63.3,29.72,SSE,151,6.0,11.0,41,0.00,,---,0.00,VWS V14.01,2013-08-07 04:08:00,
2013-08-06 23:11:00,90.1,63.2,29.72,SSE,163,6.0,13.0,41,0.00,,---,0.00,VWS V14.01,2013-08-07 04:11:00,
2013-08-06 23:14:00,90.2,63.3,29.72,SSE,157,4.0,13.0,41,0.00,,---,0.00,VWS V14.01,2013-08-07 04:14:00,
2013-08-06 23:17:00,90.1,63.2,29.72,SSE,165,6.0,13.0,41,0.00,,---,0.00,VWS V14.01,2013-08-07 04:17:00,
2013-08-06 23:20:00,90.1,63.2,29.72,SSE,159,5.0,13.0,41,0.00,,---,0.00,VWS V14.01,2013-08-07 04:20:00,
2013-08-06 23:23:00,90.1,63.2,29.72,SSE,160,4.0,13.0,41,0.00,,---,0.00,VWS V14.01,2013-08-07 04:23:00,
2013-08-06 23:26:00,89.9,63.1,29.72,South,171,10.0,13.0,41,0.00,,---,0.00,VWS V14.01,2013-08-07 04:26:00,
2013-08-06 23:29:00,89.8,63.0,29.72,South,171,5.0,13.0,41,0.00,,---,0.00,VWS V14.01,2013-08-07 04:29:00,
2013-08-06 23:30:00,89.8,63.0,29.72,SSE,165,6.0,13.0,41,0.00,,---,0.00,VWS V14.01,2013-08-07 04:30:00,
2013-08-06 23:32:00,89.8,63.7,29.72,SSE,161,6.0,9.0,42,0.00,,---,0.00,VWS V14.01,2013-08-07 04:32:00,
2013-08-06 23:35:00,89.6,63.5,29.72,SSW,201,4.0,9.0,42,0.00,,---,0.00,VWS V14.01,2013-08-07 04:35:00,
2013-08-06 23:38:00,89.6,63.5,29.72,South,172,3.0,10.0,42,0.00,,---,0.00,VWS V14.01,2013-08-07 04:38:00,
2013-08-06 23:41:00,89.5,63.4,29.71,SSE,156,8.0,10.0,42,0.00,,---,0.00,VWS V14.01,2013-08-07 04:41:00,
2013-08-06 23:44:00,89.5,63.4,29.71,SSE,152,5.0,15.0,42,0.00,,---,0.00,VWS V14.01,2013-08-07 04:44:00,
2013-08-06 23:47:00,89.5,63.4,29.71,SSE,159,7.0,15.0,42,0.00,,---,0.00,VWS V14.01,2013-08-07 04:47:00,
2013-08-06 23:50:00,89.4,63.3,29.71,South,182,8.0,15.0,42,0.00,,---,0.00,VWS V14.01,2013-08-07 04:50:00,
2013-08-06 23:53:00,89.3,63.2,29.71,South,171,6.0,15.0,42,0.00,,---,0.00,VWS V14.01,2013-08-07 04:53:00,
2013-08-06 23:56:00,89.2,63.1,29.70,South,172,6.0,15.0,42,0.00,,---,0.00,VWS V14.01,2013-08-07 04:56:00,
2013-08-06 23:59:00,89.1,63.0,29.70,South,177,8.0,15.0,42,0.00,,---,0.00,VWS V14.01,2013-08-07 04:59:00,